Terminal Aerodrome Forecast
Issued by NWS

Home | Current Version | Previous Version | Graphics & Text | Print | Product List | Glossary On
Versions: 1 2 3 4 5 6 7 8 9 10 11 12 13 14 15 16 17 18 19 20 21 22 23
000
FTUS45 KGGW 052300
TAFOLF
TAF
KOLF 052320Z 0600/0624 13009KT P6SM BKN150
     FM060800 11009KT P6SM VCSH BKN080
     FM061200 VRB03KT 6SM -SHRA BKN060
     FM061800 32011KT 5SM -SHRA OVC015=

USA.gov is the U.S. government's official web portal to all federal, state and local government web resources and services.